createdAt,value
2018-01-14T00:00:14.021Z,11.20
2018-01-14T00:02:43.526Z,11.20
2018-01-14T00:05:12.421Z,11.20
2018-01-14T00:07:42.642Z,11.30
2018-01-14T00:10:11.479Z,11.30
2018-01-14T00:12:40.217Z,11.30
2018-01-14T00:15:09.107Z,11.20
2018-01-14T00:17:37.794Z,11.10
2018-01-14T00:20:06.684Z,11.10
2018-01-14T00:22:36.394Z,11.10
2018-01-14T00:25:05.081Z,11.10
2018-01-14T00:27:33.972Z,11.10
2018-01-14T00:30:02.865Z,11.10
2018-01-14T00:32:31.450Z,11.10
2018-01-14T00:35:00.142Z,11.10
2018-01-14T00:37:29.032Z,11.10
2018-01-14T00:39:58.121Z,11.10
2018-01-14T00:42:27.013Z,11.20
2018-01-14T00:44:56.005Z,11.20
2018-01-14T00:47:24.840Z,11.20
2018-01-14T00:49:53.696Z,11.30
2018-01-14T00:52:22.578Z,11.30
2018-01-14T00:54:51.263Z,11.20
2018-01-14T00:57:20.150Z,11.20
2018-01-14T00:59:49.065Z,11.20
2018-01-14T01:02:17.944Z,11.20
2018-01-14T01:04:47.443Z,11.20
2018-01-14T01:07:16.332Z,11.20
2018-01-14T01:09:45.019Z,11.20
2018-01-14T01:12:13.706Z,11.30
2018-01-14T01:14:42.537Z,11.30
2018-01-14T01:17:11.281Z,11.40
2018-01-14T01:19:40.075Z,11.30
2018-01-14T01:22:08.965Z,11.30
2018-01-14T01:24:37.859Z,11.30
2018-01-14T01:27:06.746Z,11.30
2018-01-14T01:29:35.433Z,11.30
2018-01-14T01:32:04.127Z,11.40
2018-01-14T01:34:33.007Z,11.40
2018-01-14T01:37:01.799Z,11.40
2018-01-14T01:39:30.793Z,11.40
2018-01-14T01:41:59.577Z,11.40
2018-01-14T01:44:28.262Z,11.40
2018-01-14T01:46:57.360Z,11.30
2018-01-14T01:49:26.252Z,11.30
2018-01-14T01:51:55.149Z,11.40
2018-01-14T01:54:23.826Z,11.40
2018-01-14T01:56:52.516Z,11.50
2018-01-14T01:59:21.406Z,11.50
2018-01-14T02:01:50.088Z,11.60
2018-01-14T02:04:20.420Z,11.60
2018-01-14T02:06:49.473Z,11.60
2018-01-14T02:09:18.194Z,11.60
2018-01-14T02:11:46.883Z,11.60
2018-01-14T02:14:15.747Z,11.60
2018-01-14T02:16:44.461Z,11.60
2018-01-14T02:19:13.354Z,11.60
2018-01-14T02:21:44.205Z,11.60
2018-01-14T02:24:12.977Z,11.50
2018-01-14T02:26:41.667Z,11.50
2018-01-14T02:29:10.600Z,11.50
2018-01-14T02:31:40.059Z,11.60
2018-01-14T02:34:08.947Z,11.60
2018-01-14T02:36:38.658Z,11.60
2018-01-14T02:39:07.344Z,11.60
2018-01-14T02:41:36.142Z,11.60
2018-01-14T02:44:05.024Z,11.50
2018-01-14T02:46:33.914Z,11.50
2018-01-14T02:49:02.600Z,11.50
2018-01-14T02:51:31.570Z,11.40
2018-01-14T02:54:00.280Z,11.50
2018-01-14T02:56:29.172Z,11.50
2018-01-14T02:58:58.063Z,11.60
2018-01-14T03:01:26.752Z,11.60
2018-01-14T03:03:55.638Z,11.60
2018-01-14T03:06:24.735Z,11.60
2018-01-14T03:08:53.420Z,11.50
2018-01-14T03:11:22.315Z,11.50
2018-01-14T03:13:51.207Z,11.50
2018-01-14T03:16:19.892Z,11.40
2018-01-14T03:18:48.514Z,11.30
2018-01-14T03:21:18.183Z,11.40
2018-01-14T03:23:47.077Z,11.40
2018-01-14T03:26:16.067Z,11.40
2018-01-14T03:28:44.753Z,11.40
2018-01-14T03:31:13.561Z,11.30
2018-01-14T03:33:42.441Z,11.40
2018-01-14T03:36:11.223Z,11.40
2018-01-14T03:38:40.727Z,11.40
2018-01-14T03:41:09.413Z,11.40
2018-01-14T03:43:38.311Z,11.20
2018-01-14T03:46:07.196Z,11.20
2018-01-14T03:48:35.992Z,11.10
2018-01-14T03:51:04.981Z,11.00
2018-01-14T03:53:33.667Z,10.80
2018-01-14T03:56:02.557Z,10.80
2018-01-14T03:58:31.454Z,10.70
2018-01-14T04:01:00.485Z,10.70
2018-01-14T04:03:29.955Z,10.70
2018-01-14T04:05:58.791Z,10.70
2018-01-14T04:08:27.729Z,10.70
2018-01-14T04:10:56.587Z,10.70
2018-01-14T04:13:25.308Z,10.60
2018-01-14T04:15:53.992Z,10.50
2018-01-14T04:18:22.790Z,10.50
2018-01-14T04:20:51.636Z,10.60
2018-01-14T04:23:20.470Z,10.60
2018-01-14T04:25:49.256Z,10.60
2018-01-14T04:28:18.147Z,10.60
2018-01-14T04:30:47.645Z,10.70
2018-01-14T04:33:16.439Z,10.70
2018-01-14T04:35:46.251Z,10.40
2018-01-14T04:38:14.848Z,10.60
2018-01-14T04:40:43.627Z,10.60
2018-01-14T04:43:12.512Z,10.60
2018-01-14T04:45:41.402Z,10.60
2018-01-14T04:48:10.087Z,10.60
2018-01-14T04:50:38.880Z,10.60
2018-01-14T04:53:09.621Z,10.50
2018-01-14T04:55:38.404Z,10.50
2018-01-14T04:58:07.380Z,10.50
2018-01-14T05:00:36.328Z,10.50
2018-01-14T05:03:05.276Z,10.40
2018-01-14T05:05:34.436Z,10.40
2018-01-14T05:08:03.624Z,10.40
2018-01-14T05:10:32.735Z,10.50
2018-01-14T05:13:01.711Z,10.50
2018-01-14T05:15:31.072Z,10.40
2018-01-14T05:18:00.227Z,10.30
2018-01-14T05:20:29.360Z,10.40
2018-01-14T05:22:58.866Z,10.40
2018-01-14T05:25:28.906Z,10.40
2018-01-14T05:27:57.732Z,10.40
2018-01-14T05:30:26.661Z,10.40
2018-01-14T05:32:55.550Z,10.30
2018-01-14T05:35:24.235Z,10.30
2018-01-14T05:37:53.129Z,10.30
2018-01-14T05:40:22.433Z,10.40
2018-01-14T05:42:51.937Z,10.40
2018-01-14T05:45:20.707Z,10.40
2018-01-14T05:47:49.928Z,10.40
2018-01-14T05:50:19.162Z,10.30
2018-01-14T05:52:48.409Z,10.20
2018-01-14T05:55:17.310Z,10.20
2018-01-14T05:57:46.879Z,10.20
2018-01-14T06:00:16.498Z,10.20
2018-01-14T06:02:45.441Z,10.20
2018-01-14T06:05:14.749Z,10.20
2018-01-14T06:07:43.701Z,10.10
2018-01-14T06:10:13.020Z,10.00
2018-01-14T06:12:42.418Z,10.00
2018-01-14T06:15:12.103Z,10.00
2018-01-14T06:17:41.307Z,10.00
2018-01-14T06:20:10.788Z,10.00
2018-01-14T06:22:40.847Z,10.00
2018-01-14T06:25:10.077Z,10.00
2018-01-14T06:27:39.047Z,10.00
2018-01-14T06:30:07.928Z,10.00
2018-01-14T06:32:36.942Z,9.90
2018-01-14T06:35:05.931Z,9.80
2018-01-14T06:37:35.012Z,9.70
2018-01-14T06:40:04.091Z,9.70
2018-01-14T06:42:33.312Z,9.70
2018-01-14T06:45:02.102Z,9.70
2018-01-14T06:47:31.147Z,9.70
2018-01-14T06:50:00.123Z,9.70
2018-01-14T06:52:29.196Z,9.70
2018-01-14T06:54:58.324Z,9.70
2018-01-14T06:57:27.988Z,9.60
2018-01-14T06:59:57.189Z,9.60
2018-01-14T07:02:26.075Z,9.60
2018-01-14T07:04:55.453Z,9.60
2018-01-14T07:07:24.514Z,9.50
2018-01-14T07:09:53.600Z,9.50
2018-01-14T07:12:22.520Z,9.60
2018-01-14T07:14:51.552Z,9.60
2018-01-14T07:17:20.602Z,9.50
2018-01-14T07:19:49.543Z,9.50
2018-01-14T07:22:18.427Z,9.40
2018-01-14T07:24:47.124Z,9.40
2018-01-14T07:27:16.020Z,9.40
2018-01-14T07:29:44.897Z,9.40
2018-01-14T07:32:13.959Z,9.40
2018-01-14T07:34:43.601Z,9.50
2018-01-14T07:37:12.440Z,9.40
2018-01-14T07:39:41.185Z,9.50
2018-01-14T07:42:10.007Z,9.50
2018-01-14T07:44:39.575Z,9.30
2018-01-14T07:47:08.524Z,9.30
2018-01-14T07:49:37.456Z,9.30
2018-01-14T07:52:06.182Z,9.30
2018-01-14T07:54:34.931Z,9.40
2018-01-14T07:57:03.826Z,9.40
2018-01-14T07:59:32.713Z,9.50
2018-01-14T08:02:01.400Z,9.40
2018-01-14T08:04:36.237Z,9.30
2018-01-14T08:07:05.019Z,9.30
2018-01-14T08:09:33.707Z,9.30
2018-01-14T08:12:02.672Z,9.30
2018-01-14T08:14:31.491Z,9.30
2018-01-14T08:17:00.176Z,9.40
2018-01-14T08:19:29.071Z,9.40
2018-01-14T08:21:57.752Z,9.40
2018-01-14T08:24:26.436Z,9.30
2018-01-14T08:26:55.122Z,9.40
2018-01-14T08:29:23.712Z,9.50
2018-01-14T08:31:52.439Z,9.60
2018-01-14T08:34:22.000Z,9.70
2018-01-14T08:36:50.894Z,9.70
2018-01-14T08:39:19.788Z,9.70
2018-01-14T08:41:48.878Z,9.70
2018-01-14T08:44:17.808Z,9.70
2018-01-14T08:46:46.558Z,9.60
2018-01-14T08:49:15.514Z,9.70
2018-01-14T08:51:44.956Z,9.80
2018-01-14T08:54:13.743Z,9.80
2018-01-14T08:56:42.648Z,9.80
2018-01-14T08:59:11.324Z,9.80
2018-01-14T09:01:45.750Z,9.70
2018-01-14T09:04:14.534Z,9.80
2018-01-14T09:06:43.218Z,9.80
2018-01-14T09:09:12.009Z,9.90
2018-01-14T09:11:40.692Z,9.90
2018-01-14T09:14:09.376Z,10.00
2018-01-14T09:16:38.062Z,10.00
2018-01-14T09:19:06.956Z,10.10
2018-01-14T09:21:35.852Z,10.10
2018-01-14T09:24:04.734Z,10.10
2018-01-14T09:26:33.625Z,10.10
2018-01-14T09:29:02.519Z,10.20
2018-01-14T09:31:31.206Z,10.20
2018-01-14T09:33:59.858Z,10.30
2018-01-14T09:36:28.534Z,10.40
2018-01-14T09:38:57.267Z,10.50
2018-01-14T09:41:26.056Z,10.40
2018-01-14T09:43:54.736Z,10.50
2018-01-14T09:46:23.424Z,10.50
2018-01-14T09:48:52.321Z,10.50
2018-01-14T09:51:21.007Z,10.60
2018-01-14T09:53:49.891Z,10.80
2018-01-14T09:56:18.577Z,10.70
2018-01-14T09:58:47.266Z,10.80
2018-01-14T10:01:15.949Z,10.80
2018-01-14T10:03:44.636Z,10.70
2018-01-14T10:06:13.733Z,10.70
2018-01-14T10:08:44.059Z,10.80
2018-01-14T10:11:12.743Z,10.90
2018-01-14T10:13:41.429Z,10.90
2018-01-14T10:16:10.325Z,10.90
2018-01-14T10:18:39.015Z,10.90
2018-01-14T10:21:07.692Z,11.00
2018-01-14T10:23:36.596Z,11.00
2018-01-14T10:26:08.652Z,11.00
2018-01-14T10:28:37.588Z,11.20
2018-01-14T10:31:06.333Z,11.20
2018-01-14T10:33:35.216Z,11.20
2018-01-14T10:36:04.130Z,11.30
2018-01-14T10:38:32.754Z,11.20
2018-01-14T10:41:01.696Z,11.30
2018-01-14T10:43:30.376Z,11.40
2018-01-14T10:45:59.063Z,11.40
2018-01-14T10:48:27.746Z,11.40
2018-01-14T10:50:56.640Z,11.40
2018-01-14T10:53:25.527Z,11.40
2018-01-14T10:56:10.189Z,11.30
2018-01-14T10:58:38.885Z,11.10
2018-01-14T11:01:07.769Z,11.10
2018-01-14T11:03:36.664Z,11.00
2018-01-14T11:06:05.350Z,11.10
2018-01-14T11:08:34.289Z,11.10
2018-01-14T11:11:03.226Z,11.20
2018-01-14T11:13:31.816Z,11.30
2018-01-14T11:16:00.599Z,11.30
2018-01-14T11:18:29.797Z,11.50
2018-01-14T11:20:58.591Z,11.50
2018-01-14T11:23:27.290Z,11.50
2018-01-14T11:25:56.167Z,11.50
2018-01-14T11:28:31.616Z,11.40
2018-01-14T11:31:00.509Z,11.40
2018-01-14T11:33:29.389Z,11.40
2018-01-14T11:35:58.265Z,11.30
2018-01-14T11:38:27.180Z,11.30
2018-01-14T11:40:55.833Z,11.30
2018-01-14T11:43:24.554Z,11.40
2018-01-14T11:45:53.445Z,11.40
2018-01-14T11:48:23.310Z,11.40
2018-01-14T11:50:52.048Z,11.50
2018-01-14T11:53:20.724Z,11.60
2018-01-14T11:55:49.551Z,11.60
2018-01-14T11:58:18.543Z,11.70
2018-01-14T12:00:47.395Z,11.70
2018-01-14T12:03:17.145Z,11.70
2018-01-14T12:05:46.006Z,11.80
2018-01-14T12:08:14.887Z,11.80
2018-01-14T12:10:43.680Z,11.70
2018-01-14T12:13:12.679Z,11.70
2018-01-14T12:15:41.513Z,11.70
2018-01-14T12:18:10.990Z,11.80
2018-01-14T12:20:39.858Z,11.90
2018-01-14T12:23:08.715Z,11.80
2018-01-14T12:25:38.150Z,11.80
2018-01-14T12:28:07.051Z,11.70
2018-01-14T12:30:36.751Z,11.90
2018-01-14T12:33:08.617Z,11.90
2018-01-14T12:35:37.451Z,11.90
2018-01-14T12:38:07.274Z,12.10
2018-01-14T12:40:36.143Z,12.00
2018-01-14T12:43:04.891Z,12.00
2018-01-14T12:45:34.562Z,12.10
2018-01-14T12:48:03.290Z,12.10
2018-01-14T12:50:31.979Z,12.10
2018-01-14T12:53:00.660Z,12.00
2018-01-14T12:55:29.346Z,12.10
2018-01-14T12:57:58.187Z,12.20
2018-01-14T13:00:26.923Z,12.30
2018-01-14T13:02:55.609Z,12.40
2018-01-14T13:05:24.295Z,12.40
2018-01-14T13:07:52.982Z,12.30
2018-01-14T13:10:21.872Z,12.30
2018-01-14T13:12:50.667Z,12.40
2018-01-14T13:15:19.285Z,12.30
2018-01-14T13:17:48.034Z,12.30
2018-01-14T13:20:16.822Z,12.20
2018-01-14T13:22:45.917Z,12.30
2018-01-14T13:25:14.604Z,12.40
2018-01-14T13:27:43.298Z,12.60
2018-01-14T13:30:11.976Z,12.70
2018-01-14T13:32:40.664Z,12.80
2018-01-14T13:35:09.558Z,12.60
2018-01-14T13:37:38.300Z,12.60
2018-01-14T13:40:07.031Z,12.60
2018-01-14T13:42:35.919Z,12.70
2018-01-14T13:45:04.849Z,12.70
2018-01-14T13:47:33.547Z,12.80
2018-01-14T13:50:04.068Z,12.70
2018-01-14T13:52:36.919Z,12.70
2018-01-14T13:55:06.014Z,12.40
2018-01-14T13:57:35.001Z,12.50
2018-01-14T14:00:03.892Z,12.40
2018-01-14T14:02:32.785Z,12.40
2018-01-14T14:05:01.471Z,12.20
2018-01-14T14:07:30.157Z,12.20
2018-01-14T14:09:59.048Z,12.20
2018-01-14T14:12:27.837Z,12.20
2018-01-14T14:14:56.521Z,12.30
2018-01-14T14:17:25.308Z,12.40
2018-01-14T14:19:54.199Z,12.50
2018-01-14T14:22:23.090Z,12.50
2018-01-14T14:24:51.986Z,12.40
2018-01-14T14:27:20.667Z,12.40
2018-01-14T14:29:49.359Z,12.50
2018-01-14T14:32:18.255Z,12.50
2018-01-14T14:34:47.143Z,12.70
2018-01-14T14:37:15.927Z,12.70
2018-01-14T14:39:44.563Z,12.80
2018-01-14T14:42:13.617Z,12.60
2018-01-14T14:44:42.292Z,12.60
2018-01-14T14:47:11.086Z,12.60
2018-01-14T14:49:39.770Z,12.50
2018-01-14T14:52:08.558Z,12.50
2018-01-14T14:54:37.242Z,12.50
2018-01-14T14:57:05.931Z,12.70
2018-01-14T14:59:34.818Z,12.90
2018-01-14T15:02:03.708Z,13.50
2018-01-14T15:04:32.601Z,13.70
2018-01-14T15:07:01.292Z,14.00
2018-01-14T15:09:29.976Z,14.20
2018-01-14T15:11:58.657Z,14.10
2018-01-14T15:14:27.284Z,13.80
2018-01-14T15:16:56.032Z,14.00
2018-01-14T15:19:24.820Z,13.80
2018-01-14T15:21:53.514Z,13.80
2018-01-14T15:24:22.348Z,13.60
2018-01-14T15:26:51.090Z,13.30
2018-01-14T15:29:19.776Z,13.20
2018-01-14T15:31:48.620Z,13.10
2018-01-14T15:34:17.354Z,13.10
2018-01-14T15:36:46.035Z,13.00
2018-01-14T15:39:14.720Z,12.80
2018-01-14T15:41:43.706Z,12.70
2018-01-14T15:44:12.506Z,12.50
2018-01-14T15:46:42.418Z,12.50
2018-01-14T15:49:12.126Z,12.40
2018-01-14T15:51:41.018Z,12.40
2018-01-14T15:54:09.708Z,12.40
2018-01-14T15:56:38.682Z,12.30
2018-01-14T15:59:07.490Z,12.20
2018-01-14T16:01:36.387Z,12.10
2018-01-14T16:04:06.473Z,12.00
2018-01-14T16:06:35.592Z,12.00
2018-01-14T16:09:04.899Z,11.90
2018-01-14T16:11:33.684Z,11.90
2018-01-14T16:14:02.366Z,11.90
2018-01-14T16:16:31.154Z,11.80
2018-01-14T16:18:59.848Z,11.70
2018-01-14T16:21:28.936Z,11.80
2018-01-14T16:23:58.237Z,11.70
2018-01-14T16:26:27.325Z,11.70
2018-01-14T16:28:57.184Z,11.80
2018-01-14T16:31:26.554Z,11.70
2018-01-14T16:33:55.651Z,11.80
2018-01-14T16:36:24.917Z,11.80
2018-01-14T16:38:54.186Z,11.70
2018-01-14T16:41:23.267Z,11.70
2018-01-14T16:43:52.355Z,11.70
2018-01-14T16:46:21.480Z,11.60
2018-01-14T16:48:50.539Z,11.60
2018-01-14T16:51:20.252Z,11.50
2018-01-14T16:53:49.695Z,11.50
2018-01-14T16:56:18.636Z,11.40
2018-01-14T16:58:47.527Z,11.40
2018-01-14T17:01:16.626Z,11.40
2018-01-14T17:03:46.334Z,11.30
2018-01-14T17:06:15.232Z,11.30
2018-01-14T17:08:44.349Z,11.20
2018-01-14T17:11:14.642Z,11.20
2018-01-14T17:13:44.556Z,11.10
2018-01-14T17:16:13.717Z,11.20
2018-01-14T17:18:42.547Z,11.10
2018-01-14T17:21:12.254Z,11.10
2018-01-14T17:23:41.469Z,11.00
2018-01-14T17:26:10.343Z,11.00
2018-01-14T17:28:39.344Z,11.00
2018-01-14T17:31:08.182Z,11.00
2018-01-14T17:33:37.270Z,11.00
2018-01-14T17:36:06.015Z,11.00
2018-01-14T17:38:35.012Z,10.90
2018-01-14T17:41:05.150Z,11.00
2018-01-14T17:43:33.941Z,11.00
2018-01-14T17:46:02.908Z,11.00
2018-01-14T17:48:32.793Z,11.00
2018-01-14T17:51:01.920Z,11.10
2018-01-14T17:53:32.048Z,10.90
2018-01-14T17:56:01.561Z,10.90
2018-01-14T17:58:30.852Z,10.90
2018-01-14T18:00:59.597Z,10.90
2018-01-14T18:03:28.424Z,10.90
2018-01-14T18:05:57.443Z,10.90
2018-01-14T18:08:27.367Z,10.80
2018-01-14T18:10:56.444Z,10.80
2018-01-14T18:13:25.616Z,10.80
2018-01-14T18:15:54.919Z,10.90
2018-01-14T18:18:24.024Z,10.80
2018-01-14T18:20:53.074Z,10.80
2018-01-14T18:23:22.425Z,10.80
2018-01-14T18:25:51.309Z,10.80
2018-01-14T18:28:20.851Z,10.80
2018-01-14T18:30:50.763Z,10.80
2018-01-14T18:33:19.696Z,10.70
2018-01-14T18:35:48.420Z,10.80
2018-01-14T18:38:19.321Z,10.80
2018-01-14T18:40:48.140Z,10.80
2018-01-14T18:43:17.025Z,10.80
2018-01-14T18:45:57.590Z,10.70
2018-01-14T18:48:26.481Z,10.70
2018-01-14T18:50:55.381Z,10.70
2018-01-14T18:53:24.269Z,10.70
2018-01-14T18:55:53.367Z,10.70
2018-01-14T18:58:22.043Z,10.60
2018-01-14T19:00:51.143Z,10.70
2018-01-14T19:03:20.035Z,10.60
2018-01-14T19:05:48.922Z,10.60
2018-01-14T19:08:17.812Z,10.60
2018-01-14T19:10:46.456Z,10.60
2018-01-14T19:13:15.185Z,10.60
2018-01-14T19:15:43.871Z,10.70
2018-01-14T19:18:12.515Z,10.70
2018-01-14T19:20:41.401Z,10.70
2018-01-14T19:23:10.152Z,10.70
2018-01-14T19:25:38.968Z,10.70
2018-01-14T19:28:07.753Z,10.70
2018-01-14T19:30:36.605Z,10.70
2018-01-14T19:33:05.512Z,10.70
2018-01-14T19:35:34.180Z,10.80
2018-01-14T19:38:02.817Z,10.80
2018-01-14T19:40:31.490Z,10.70
2018-01-14T19:43:00.448Z,10.70
2018-01-14T19:45:29.237Z,10.60
2018-01-14T19:47:58.124Z,10.60
2018-01-14T19:50:27.222Z,10.60
2018-01-14T19:52:55.908Z,10.60
2018-01-14T19:55:24.939Z,10.60
2018-01-14T19:57:54.317Z,10.50
2018-01-14T20:00:23.194Z,10.40
2018-01-14T20:02:51.884Z,10.50
2018-01-14T20:05:20.564Z,10.50
2018-01-14T20:07:49.455Z,10.50
2018-01-14T20:10:18.192Z,10.50
2018-01-14T20:12:47.036Z,10.50
2018-01-14T20:15:15.727Z,10.40
2018-01-14T20:17:44.610Z,10.50
2018-01-14T20:20:13.500Z,10.50
2018-01-14T20:22:42.334Z,10.50
2018-01-14T20:25:11.232Z,10.50
2018-01-14T20:27:39.968Z,10.50
2018-01-14T20:30:08.864Z,10.50
2018-01-14T20:32:37.750Z,10.40
2018-01-14T20:35:06.544Z,10.40
2018-01-14T20:37:35.226Z,10.40
2018-01-14T20:40:04.127Z,10.40
2018-01-14T20:42:33.008Z,10.40
2018-01-14T20:45:01.913Z,10.40
2018-01-14T20:47:30.797Z,10.40
2018-01-14T20:49:59.481Z,10.40
2018-01-14T20:52:28.169Z,10.30
2018-01-14T20:54:57.265Z,10.30
2018-01-14T20:57:25.947Z,10.40
2018-01-14T20:59:54.725Z,10.40
2018-01-14T21:02:23.364Z,10.30
2018-01-14T21:04:52.114Z,10.30
2018-01-14T21:07:21.000Z,10.30
2018-01-14T21:09:49.835Z,10.30
2018-01-14T21:12:19.404Z,10.30
2018-01-14T21:14:48.079Z,10.20
2018-01-14T21:17:16.973Z,10.30
2018-01-14T21:19:45.869Z,10.30
2018-01-14T21:22:14.710Z,10.20
2018-01-14T21:24:43.445Z,10.20
2018-01-14T21:27:13.155Z,10.20
2018-01-14T21:29:42.247Z,10.20
2018-01-14T21:32:11.148Z,10.20
2018-01-14T21:34:40.033Z,10.20
2018-01-14T21:37:08.669Z,10.20
2018-01-14T21:39:37.609Z,10.20
2018-01-14T21:42:06.296Z,10.20
2018-01-14T21:44:35.336Z,10.30
2018-01-14T21:47:04.488Z,10.30
2018-01-14T21:49:33.139Z,10.30
2018-01-14T21:52:02.677Z,10.20
2018-01-14T21:54:31.570Z,10.20
2018-01-14T21:57:00.479Z,10.20
2018-01-14T21:59:29.245Z,10.20
2018-01-14T22:01:58.148Z,10.20
2018-01-14T22:04:26.978Z,10.20
2018-01-14T22:06:55.711Z,10.20
2018-01-14T22:09:24.613Z,10.20
2018-01-14T22:11:53.333Z,10.30
2018-01-14T22:14:22.390Z,10.30
2018-01-14T22:16:51.487Z,10.20
2018-01-14T22:19:20.271Z,10.30
2018-01-14T22:21:48.964Z,10.30
2018-01-14T22:24:18.002Z,10.20
2018-01-14T22:26:46.744Z,10.20
2018-01-14T22:29:15.567Z,10.20
2018-01-14T22:31:44.317Z,10.20
2018-01-14T22:34:13.411Z,10.20
2018-01-14T22:36:42.357Z,10.20
2018-01-14T22:39:12.057Z,10.10
2018-01-14T22:41:41.730Z,10.10
2018-01-14T22:44:10.835Z,10.10
2018-01-14T22:46:39.718Z,10.10
2018-01-14T22:49:08.332Z,10.10
2018-01-14T22:51:38.517Z,10.10
2018-01-14T22:54:07.201Z,10.10
2018-01-14T22:56:36.095Z,10.00
2018-01-14T22:59:06.154Z,10.00
2018-01-14T23:01:34.900Z,10.00
2018-01-14T23:04:04.350Z,9.90
2018-01-14T23:06:32.952Z,9.90
2018-01-14T23:09:01.777Z,9.90
2018-01-14T23:11:31.192Z,9.80
2018-01-14T23:13:59.966Z,9.80
2018-01-14T23:16:28.681Z,9.80
2018-01-14T23:18:57.357Z,9.80
2018-01-14T23:21:26.230Z,9.80
2018-01-14T23:23:55.124Z,9.80
2018-01-14T23:26:23.808Z,9.70
2018-01-14T23:28:52.495Z,9.80
2018-01-14T23:31:21.324Z,9.80
2018-01-14T23:33:50.073Z,9.70
2018-01-14T23:36:18.765Z,9.70
2018-01-14T23:38:47.648Z,9.70
2018-01-14T23:41:16.448Z,9.60
2018-01-14T23:43:45.072Z,9.60
2018-01-14T23:46:13.811Z,9.60
2018-01-14T23:48:42.905Z,9.60
2018-01-14T23:51:12.033Z,9.60
2018-01-14T23:53:42.126Z,9.60
2018-01-14T23:56:11.190Z,9.60
2018-01-14T23:58:40.327Z,9.50
